New Harrisburg, Ohio
Current Conditions -  °F | °C
As of 1:53 PM on Saturday 25 Oct 2014 (Local Time) from KPHD Reporting Station
Broken Clouds Broken Clouds  
Wind Chill: 68°   Ceiling: 3500
Heat Index: 68°   Visibility: 10mi
Dew Point: 52°   Wind: 7mph
Humidity: 56%   Direction: NA
Pressure: 29.84"   Gusts: NA
Location:  40.5653°N, 81.0724°W
Report Text: KPHD 251753Z AUTO VRB06KT 10SM BKN035 20/11 A2984 RMK AO2 SLP106 T02000111 10200 20050 56035
Loading
Personal Weather Stations






























Interactive Weather Map
Tropical Storm Tracking
New forecast layout! Learn more

10-Day Weather Forecast

Advertisements
Track Severe Weather on mobile